sensor_id;sensor_type;location;lat;lon;timestamp;P1;durP1;ratioP1;P2;durP2;ratioP2
3795;SDS011;1913;50.660;7.834;2023-12-04T00:00:55;28.90;;;13.40;;
3795;SDS011;1913;50.660;7.834;2023-12-04T00:03:20;28.53;;;14.47;;
3795;SDS011;1913;50.660;7.834;2023-12-04T00:05:45;24.30;;;13.13;;
3795;SDS011;1913;50.660;7.834;2023-12-04T00:08:10;24.03;;;13.03;;
3795;SDS011;1913;50.660;7.834;2023-12-04T00:10:36;25.23;;;13.40;;
3795;SDS011;1913;50.660;7.834;2023-12-04T00:13:01;27.60;;;14.43;;
3795;SDS011;1913;50.660;7.834;2023-12-04T00:15:26;25.83;;;13.80;;
3795;SDS011;1913;50.660;7.834;2023-12-04T00:17:51;28.00;;;14.00;;
3795;SDS011;1913;50.660;7.834;2023-12-04T00:20:17;21.27;;;12.00;;
3795;SDS011;1913;50.660;7.834;2023-12-04T00:22:42;24.90;;;13.30;;
3795;SDS011;1913;50.660;7.834;2023-12-04T00:25:07;23.90;;;12.77;;
3795;SDS011;1913;50.660;7.834;2023-12-04T00:27:32;26.87;;;13.13;;
3795;SDS011;1913;50.660;7.834;2023-12-04T00:29:58;24.50;;;13.33;;
3795;SDS011;1913;50.660;7.834;2023-12-04T00:32:23;25.97;;;12.87;;
3795;SDS011;1913;50.660;7.834;2023-12-04T00:34:48;28.33;;;14.20;;
3795;SDS011;1913;50.660;7.834;2023-12-04T00:37:13;26.70;;;13.13;;
3795;SDS011;1913;50.660;7.834;2023-12-04T00:39:39;25.47;;;14.10;;
3795;SDS011;1913;50.660;7.834;2023-12-04T00:42:04;24.93;;;13.13;;
3795;SDS011;1913;50.660;7.834;2023-12-04T00:44:30;24.00;;;11.93;;
3795;SDS011;1913;50.660;7.834;2023-12-04T00:46:55;23.37;;;12.47;;
3795;SDS011;1913;50.660;7.834;2023-12-04T00:49:20;28.53;;;14.33;;
3795;SDS011;1913;50.660;7.834;2023-12-04T00:51:45;27.87;;;13.20;;
3795;SDS011;1913;50.660;7.834;2023-12-04T00:54:11;29.77;;;13.37;;
3795;SDS011;1913;50.660;7.834;2023-12-04T00:56:39;24.83;;;14.00;;
3795;SDS011;1913;50.660;7.834;2023-12-04T00:59:05;26.47;;;14.17;;
3795;SDS011;1913;50.660;7.834;2023-12-04T01:01:31;25.67;;;13.87;;
3795;SDS011;1913;50.660;7.834;2023-12-04T01:03:56;25.17;;;13.33;;
3795;SDS011;1913;50.660;7.834;2023-12-04T01:06:22;29.63;;;13.53;;
3795;SDS011;1913;50.660;7.834;2023-12-04T01:08:47;25.20;;;13.30;;
3795;SDS011;1913;50.660;7.834;2023-12-04T01:11:13;24.83;;;13.30;;
3795;SDS011;1913;50.660;7.834;2023-12-04T01:13:39;29.20;;;14.40;;
3795;SDS011;1913;50.660;7.834;2023-12-04T01:16:04;28.50;;;14.00;;
3795;SDS011;1913;50.660;7.834;2023-12-04T01:18:29;25.67;;;13.70;;
3795;SDS011;1913;50.660;7.834;2023-12-04T01:20:54;26.30;;;13.07;;
3795;SDS011;1913;50.660;7.834;2023-12-04T01:23:20;27.30;;;13.63;;
3795;SDS011;1913;50.660;7.834;2023-12-04T01:25:45;27.80;;;13.90;;
3795;SDS011;1913;50.660;7.834;2023-12-04T01:28:10;27.07;;;13.90;;
3795;SDS011;1913;50.660;7.834;2023-12-04T01:30:36;27.93;;;14.43;;
3795;SDS011;1913;50.660;7.834;2023-12-04T01:33:01;27.90;;;13.50;;
3795;SDS011;1913;50.660;7.834;2023-12-04T01:35:26;29.60;;;13.93;;
3795;SDS011;1913;50.660;7.834;2023-12-04T01:37:51;27.00;;;13.30;;
3795;SDS011;1913;50.660;7.834;2023-12-04T01:40:16;28.53;;;13.80;;
3795;SDS011;1913;50.660;7.834;2023-12-04T01:42:42;28.63;;;14.83;;
3795;SDS011;1913;50.660;7.834;2023-12-04T01:45:07;30.93;;;14.90;;
3795;SDS011;1913;50.660;7.834;2023-12-04T01:47:33;28.73;;;13.80;;
3795;SDS011;1913;50.660;7.834;2023-12-04T01:49:58;25.67;;;14.17;;
3795;SDS011;1913;50.660;7.834;2023-12-04T01:52:23;27.97;;;14.13;;
3795;SDS011;1913;50.660;7.834;2023-12-04T01:54:48;31.57;;;14.57;;
3795;SDS011;1913;50.660;7.834;2023-12-04T01:57:14;27.33;;;13.77;;
3795;SDS011;1913;50.660;7.834;2023-12-04T01:59:39;28.90;;;13.47;;
3795;SDS011;1913;50.660;7.834;2023-12-04T02:02:04;27.63;;;13.50;;
3795;SDS011;1913;50.660;7.834;2023-12-04T02:04:30;36.37;;;15.37;;
3795;SDS011;1913;50.660;7.834;2023-12-04T02:06:55;27.80;;;13.50;;
3795;SDS011;1913;50.660;7.834;2023-12-04T02:09:21;26.23;;;13.13;;
3795;SDS011;1913;50.660;7.834;2023-12-04T02:11:46;28.50;;;13.30;;
3795;SDS011;1913;50.660;7.834;2023-12-04T02:14:11;28.73;;;13.67;;
3795;SDS011;1913;50.660;7.834;2023-12-04T02:16:38;26.67;;;13.17;;
3795;SDS011;1913;50.660;7.834;2023-12-04T02:19:06;30.13;;;13.73;;
3795;SDS011;1913;50.660;7.834;2023-12-04T02:21:32;25.37;;;13.40;;
3795;SDS011;1913;50.660;7.834;2023-12-04T02:23:57;24.40;;;12.57;;
3795;SDS011;1913;50.660;7.834;2023-12-04T02:26:23;24.07;;;12.40;;
3795;SDS011;1913;50.660;7.834;2023-12-04T02:28:50;24.30;;;11.70;;
3795;SDS011;1913;50.660;7.834;2023-12-04T02:31:17;24.37;;;12.67;;
3795;SDS011;1913;50.660;7.834;2023-12-04T02:33:43;25.63;;;12.37;;
3795;SDS011;1913;50.660;7.834;2023-12-04T02:36:10;22.83;;;12.43;;
3795;SDS011;1913;50.660;7.834;2023-12-04T02:38:35;29.50;;;14.30;;
3795;SDS011;1913;50.660;7.834;2023-12-04T02:41:00;24.87;;;12.83;;
3795;SDS011;1913;50.660;7.834;2023-12-04T02:43:25;22.47;;;11.80;;
3795;SDS011;1913;50.660;7.834;2023-12-04T02:45:51;22.47;;;12.10;;
3795;SDS011;1913;50.660;7.834;2023-12-04T02:48:16;27.67;;;13.60;;
3795;SDS011;1913;50.660;7.834;2023-12-04T02:50:41;28.40;;;13.10;;
3795;SDS011;1913;50.660;7.834;2023-12-04T02:53:06;30.30;;;13.73;;
3795;SDS011;1913;50.660;7.834;2023-12-04T02:55:31;28.87;;;14.47;;
3795;SDS011;1913;50.660;7.834;2023-12-04T02:57:56;27.03;;;13.53;;
3795;SDS011;1913;50.660;7.834;2023-12-04T03:00:22;26.10;;;14.20;;
3795;SDS011;1913;50.660;7.834;2023-12-04T03:02:47;26.53;;;12.70;;
3795;SDS011;1913;50.660;7.834;2023-12-04T03:05:12;28.53;;;14.10;;
3795;SDS011;1913;50.660;7.834;2023-12-04T03:07:37;31.30;;;13.27;;
3795;SDS011;1913;50.660;7.834;2023-12-04T03:10:02;29.77;;;14.37;;
3795;SDS011;1913;50.660;7.834;2023-12-04T03:12:28;33.17;;;13.83;;
3795;SDS011;1913;50.660;7.834;2023-12-04T03:14:53;25.53;;;12.43;;
3795;SDS011;1913;50.660;7.834;2023-12-04T03:17:18;27.07;;;13.63;;
3795;SDS011;1913;50.660;7.834;2023-12-04T03:19:44;26.57;;;12.90;;
3795;SDS011;1913;50.660;7.834;2023-12-04T03:22:09;25.17;;;12.73;;
3795;SDS011;1913;50.660;7.834;2023-12-04T03:24:34;27.07;;;13.50;;
3795;SDS011;1913;50.660;7.834;2023-12-04T03:26:59;26.90;;;12.40;;
3795;SDS011;1913;50.660;7.834;2023-12-04T03:29:24;26.80;;;12.23;;
3795;SDS011;1913;50.660;7.834;2023-12-04T03:31:49;27.40;;;12.60;;
3795;SDS011;1913;50.660;7.834;2023-12-04T03:34:15;23.80;;;12.83;;
3795;SDS011;1913;50.660;7.834;2023-12-04T03:36:40;20.13;;;11.30;;
3795;SDS011;1913;50.660;7.834;2023-12-04T03:39:05;23.13;;;11.97;;
3795;SDS011;1913;50.660;7.834;2023-12-04T03:41:30;20.33;;;10.03;;
3795;SDS011;1913;50.660;7.834;2023-12-04T03:43:55;22.50;;;11.20;;
3795;SDS011;1913;50.660;7.834;2023-12-04T03:46:20;20.97;;;11.17;;
3795;SDS011;1913;50.660;7.834;2023-12-04T03:48:45;21.00;;;10.47;;
3795;SDS011;1913;50.660;7.834;2023-12-04T03:51:11;24.83;;;11.17;;
3795;SDS011;1913;50.660;7.834;2023-12-04T03:53:36;20.90;;;10.50;;
3795;SDS011;1913;50.660;7.834;2023-12-04T03:56:01;19.50;;;10.80;;
3795;SDS011;1913;50.660;7.834;2023-12-04T03:58:26;21.20;;;11.03;;
3795;SDS011;1913;50.660;7.834;2023-12-04T04:00:51;18.07;;;9.90;;
3795;SDS011;1913;50.660;7.834;2023-12-04T04:03:17;19.50;;;10.50;;
3795;SDS011;1913;50.660;7.834;2023-12-04T04:05:42;19.90;;;10.53;;
3795;SDS011;1913;50.660;7.834;2023-12-04T04:08:07;22.03;;;10.70;;
3795;SDS011;1913;50.660;7.834;2023-12-04T04:10:33;22.13;;;11.63;;
3795;SDS011;1913;50.660;7.834;2023-12-04T04:12:58;20.00;;;10.33;;
3795;SDS011;1913;50.660;7.834;2023-12-04T04:15:23;18.67;;;9.90;;
3795;SDS011;1913;50.660;7.834;2023-12-04T04:17:48;21.67;;;11.03;;
3795;SDS011;1913;50.660;7.834;2023-12-04T04:20:13;23.43;;;11.80;;
3795;SDS011;1913;50.660;7.834;2023-12-04T04:22:39;21.20;;;10.07;;
3795;SDS011;1913;50.660;7.834;2023-12-04T04:25:06;22.07;;;11.67;;
3795;SDS011;1913;50.660;7.834;2023-12-04T04:27:31;21.87;;;10.50;;
3795;SDS011;1913;50.660;7.834;2023-12-04T04:29:56;21.60;;;10.63;;
3795;SDS011;1913;50.660;7.834;2023-12-04T04:32:22;21.53;;;11.23;;
3795;SDS011;1913;50.660;7.834;2023-12-04T04:34:47;22.13;;;11.13;;
3795;SDS011;1913;50.660;7.834;2023-12-04T04:37:12;20.70;;;11.33;;
3795;SDS011;1913;50.660;7.834;2023-12-04T04:39:39;18.20;;;10.03;;
3795;SDS011;1913;50.660;7.834;2023-12-04T04:42:04;20.47;;;10.90;;
3795;SDS011;1913;50.660;7.834;2023-12-04T04:44:29;14.50;;;8.90;;
3795;SDS011;1913;50.660;7.834;2023-12-04T04:46:54;20.53;;;9.73;;
3795;SDS011;1913;50.660;7.834;2023-12-04T04:49:20;20.53;;;10.60;;
3795;SDS011;1913;50.660;7.834;2023-12-04T04:51:45;18.40;;;9.80;;
3795;SDS011;1913;50.660;7.834;2023-12-04T04:54:10;18.63;;;9.50;;
3795;SDS011;1913;50.660;7.834;2023-12-04T04:56:35;19.60;;;10.47;;
3795;SDS011;1913;50.660;7.834;2023-12-04T04:59:00;19.20;;;10.03;;
3795;SDS011;1913;50.660;7.834;2023-12-04T05:01:26;22.00;;;11.07;;
3795;SDS011;1913;50.660;7.834;2023-12-04T05:03:51;18.20;;;9.93;;
3795;SDS011;1913;50.660;7.834;2023-12-04T05:06:16;16.30;;;9.07;;
3795;SDS011;1913;50.660;7.834;2023-12-04T05:08:42;20.33;;;9.50;;
3795;SDS011;1913;50.660;7.834;2023-12-04T05:11:07;20.87;;;9.70;;
3795;SDS011;1913;50.660;7.834;2023-12-04T05:13:32;18.93;;;10.07;;
3795;SDS011;1913;50.660;7.834;2023-12-04T05:15:57;20.20;;;10.67;;
3795;SDS011;1913;50.660;7.834;2023-12-04T05:18:22;20.53;;;9.90;;
3795;SDS011;1913;50.660;7.834;2023-12-04T05:20:47;18.93;;;9.47;;
3795;SDS011;1913;50.660;7.834;2023-12-04T05:23:13;22.63;;;10.30;;
3795;SDS011;1913;50.660;7.834;2023-12-04T05:25:38;17.60;;;9.53;;
3795;SDS011;1913;50.660;7.834;2023-12-04T05:28:03;18.03;;;9.90;;
3795;SDS011;1913;50.660;7.834;2023-12-04T05:30:29;23.00;;;11.07;;
3795;SDS011;1913;50.660;7.834;2023-12-04T05:32:54;19.80;;;10.57;;
3795;SDS011;1913;50.660;7.834;2023-12-04T05:35:19;22.73;;;10.80;;
3795;SDS011;1913;50.660;7.834;2023-12-04T05:37:44;20.67;;;10.20;;
3795;SDS011;1913;50.660;7.834;2023-12-04T05:40:10;21.40;;;9.73;;
3795;SDS011;1913;50.660;7.834;2023-12-04T05:42:36;22.73;;;11.07;;
3795;SDS011;1913;50.660;7.834;2023-12-04T05:45:01;20.27;;;9.80;;
3795;SDS011;1913;50.660;7.834;2023-12-04T05:47:26;19.80;;;10.00;;
3795;SDS011;1913;50.660;7.834;2023-12-04T05:49:51;18.23;;;9.87;;
3795;SDS011;1913;50.660;7.834;2023-12-04T05:52:17;20.50;;;10.47;;
3795;SDS011;1913;50.660;7.834;2023-12-04T05:54:42;17.63;;;9.60;;
3795;SDS011;1913;50.660;7.834;2023-12-04T05:57:07;22.90;;;10.03;;
3795;SDS011;1913;50.660;7.834;2023-12-04T05:59:32;23.40;;;11.20;;
3795;SDS011;1913;50.660;7.834;2023-12-04T06:01:57;20.13;;;10.90;;
3795;SDS011;1913;50.660;7.834;2023-12-04T06:04:23;19.70;;;9.70;;
3795;SDS011;1913;50.660;7.834;2023-12-04T06:06:48;19.73;;;10.47;;
3795;SDS011;1913;50.660;7.834;2023-12-04T06:09:13;17.97;;;10.00;;
3795;SDS011;1913;50.660;7.834;2023-12-04T06:11:41;16.93;;;9.07;;
3795;SDS011;1913;50.660;7.834;2023-12-04T06:14:06;16.87;;;9.47;;
3795;SDS011;1913;50.660;7.834;2023-12-04T06:16:31;16.97;;;9.43;;
3795;SDS011;1913;50.660;7.834;2023-12-04T06:18:57;21.70;;;10.77;;
3795;SDS011;1913;50.660;7.834;2023-12-04T06:21:22;18.00;;;8.57;;
3795;SDS011;1913;50.660;7.834;2023-12-04T06:23:47;19.13;;;10.27;;
3795;SDS011;1913;50.660;7.834;2023-12-04T06:26:12;17.57;;;9.00;;
3795;SDS011;1913;50.660;7.834;2023-12-04T06:28:38;19.97;;;9.60;;
3795;SDS011;1913;50.660;7.834;2023-12-04T06:31:03;18.13;;;9.60;;
3795;SDS011;1913;50.660;7.834;2023-12-04T06:33:29;18.43;;;10.20;;
3795;SDS011;1913;50.660;7.834;2023-12-04T06:35:54;19.17;;;9.80;;
3795;SDS011;1913;50.660;7.834;2023-12-04T06:38:19;18.20;;;9.70;;
3795;SDS011;1913;50.660;7.834;2023-12-04T06:40:48;16.10;;;9.50;;
3795;SDS011;1913;50.660;7.834;2023-12-04T06:43:14;17.03;;;7.70;;
3795;SDS011;1913;50.660;7.834;2023-12-04T06:45:41;15.27;;;8.63;;
3795;SDS011;1913;50.660;7.834;2023-12-04T06:48:06;16.03;;;8.60;;
3795;SDS011;1913;50.660;7.834;2023-12-04T06:50:33;17.47;;;8.60;;
3795;SDS011;1913;50.660;7.834;2023-12-04T06:52:58;18.97;;;8.50;;
3795;SDS011;1913;50.660;7.834;2023-12-04T06:55:23;17.90;;;9.20;;
3795;SDS011;1913;50.660;7.834;2023-12-04T06:57:49;14.60;;;8.30;;
3795;SDS011;1913;50.660;7.834;2023-12-04T07:00:14;13.40;;;8.07;;
3795;SDS011;1913;50.660;7.834;2023-12-04T07:02:40;16.33;;;8.53;;
3795;SDS011;1913;50.660;7.834;2023-12-04T07:05:06;15.00;;;7.93;;
3795;SDS011;1913;50.660;7.834;2023-12-04T07:07:31;13.73;;;8.40;;
3795;SDS011;1913;50.660;7.834;2023-12-04T07:09:56;15.23;;;8.73;;
3795;SDS011;1913;50.660;7.834;2023-12-04T07:12:22;14.83;;;8.47;;
3795;SDS011;1913;50.660;7.834;2023-12-04T07:14:47;15.60;;;8.93;;
3795;SDS011;1913;50.660;7.834;2023-12-04T07:17:12;17.03;;;8.90;;
3795;SDS011;1913;50.660;7.834;2023-12-04T07:19:37;14.47;;;7.80;;
3795;SDS011;1913;50.660;7.834;2023-12-04T07:22:03;15.93;;;8.43;;
3795;SDS011;1913;50.660;7.834;2023-12-04T07:24:29;12.63;;;7.83;;
3795;SDS011;1913;50.660;7.834;2023-12-04T07:26:54;15.43;;;8.00;;
3795;SDS011;1913;50.660;7.834;2023-12-04T07:29:20;15.33;;;9.03;;
3795;SDS011;1913;50.660;7.834;2023-12-04T07:31:45;11.80;;;7.20;;
3795;SDS011;1913;50.660;7.834;2023-12-04T07:34:10;13.47;;;7.77;;
3795;SDS011;1913;50.660;7.834;2023-12-04T07:36:35;13.17;;;7.50;;
3795;SDS011;1913;50.660;7.834;2023-12-04T07:39:00;12.83;;;7.77;;
3795;SDS011;1913;50.660;7.834;2023-12-04T07:41:25;14.90;;;7.83;;
3795;SDS011;1913;50.660;7.834;2023-12-04T07:43:51;14.80;;;7.10;;
3795;SDS011;1913;50.660;7.834;2023-12-04T07:46:16;11.70;;;6.63;;
3795;SDS011;1913;50.660;7.834;2023-12-04T07:48:41;12.20;;;7.00;;
3795;SDS011;1913;50.660;7.834;2023-12-04T07:51:08;14.73;;;7.87;;
3795;SDS011;1913;50.660;7.834;2023-12-04T07:53:34;15.30;;;8.40;;
3795;SDS011;1913;50.660;7.834;2023-12-04T07:56:02;14.03;;;7.50;;
3795;SDS011;1913;50.660;7.834;2023-12-04T07:58:30;14.60;;;7.47;;
3795;SDS011;1913;50.660;7.834;2023-12-04T08:00:56;15.27;;;7.60;;
3795;SDS011;1913;50.660;7.834;2023-12-04T08:03:21;12.20;;;7.20;;
3795;SDS011;1913;50.660;7.834;2023-12-04T08:05:46;11.77;;;6.70;;
3795;SDS011;1913;50.660;7.834;2023-12-04T08:08:12;14.07;;;6.63;;
3795;SDS011;1913;50.660;7.834;2023-12-04T08:10:37;16.13;;;7.07;;
3795;SDS011;1913;50.660;7.834;2023-12-04T08:13:02;15.30;;;7.07;;
3795;SDS011;1913;50.660;7.834;2023-12-04T08:15:27;12.40;;;7.53;;
3795;SDS011;1913;50.660;7.834;2023-12-04T08:17:53;15.63;;;8.20;;
3795;SDS011;1913;50.660;7.834;2023-12-04T08:20:18;10.57;;;6.30;;
3795;SDS011;1913;50.660;7.834;2023-12-04T08:22:47;11.77;;;7.30;;
3795;SDS011;1913;50.660;7.834;2023-12-04T08:25:12;11.13;;;6.90;;
3795;SDS011;1913;50.660;7.834;2023-12-04T08:27:37;13.20;;;7.53;;
3795;SDS011;1913;50.660;7.834;2023-12-04T08:30:05;13.37;;;6.63;;
3795;SDS011;1913;50.660;7.834;2023-12-04T08:32:31;13.70;;;7.13;;
3795;SDS011;1913;50.660;7.834;2023-12-04T08:34:56;11.23;;;6.90;;
3795;SDS011;1913;50.660;7.834;2023-12-04T08:37:21;13.07;;;7.33;;
3795;SDS011;1913;50.660;7.834;2023-12-04T08:39:47;11.83;;;6.63;;
3795;SDS011;1913;50.660;7.834;2023-12-04T08:42:12;12.10;;;7.20;;
3795;SDS011;1913;50.660;7.834;2023-12-04T08:44:37;12.30;;;6.30;;
3795;SDS011;1913;50.660;7.834;2023-12-04T08:47:03;11.57;;;6.60;;
3795;SDS011;1913;50.660;7.834;2023-12-04T08:49:28;11.97;;;6.50;;
3795;SDS011;1913;50.660;7.834;2023-12-04T08:51:53;11.97;;;6.70;;
3795;SDS011;1913;50.660;7.834;2023-12-04T08:54:18;11.23;;;6.73;;
3795;SDS011;1913;50.660;7.834;2023-12-04T08:56:44;12.97;;;7.17;;
3795;SDS011;1913;50.660;7.834;2023-12-04T08:59:09;11.43;;;6.10;;
3795;SDS011;1913;50.660;7.834;2023-12-04T09:01:34;11.60;;;6.87;;
3795;SDS011;1913;50.660;7.834;2023-12-04T09:03:59;10.30;;;6.80;;
3795;SDS011;1913;50.660;7.834;2023-12-04T09:06:25;10.40;;;5.83;;
3795;SDS011;1913;50.660;7.834;2023-12-04T09:08:50;13.57;;;6.80;;
3795;SDS011;1913;50.660;7.834;2023-12-04T09:11:15;9.60;;;6.60;;
3795;SDS011;1913;50.660;7.834;2023-12-04T09:13:40;12.17;;;6.77;;
3795;SDS011;1913;50.660;7.834;2023-12-04T09:16:06;12.43;;;7.43;;
3795;SDS011;1913;50.660;7.834;2023-12-04T09:18:31;12.00;;;6.87;;
3795;SDS011;1913;50.660;7.834;2023-12-04T09:20:56;12.60;;;7.40;;
3795;SDS011;1913;50.660;7.834;2023-12-04T09:23:22;14.80;;;8.07;;
3795;SDS011;1913;50.660;7.834;2023-12-04T09:25:47;9.63;;;6.10;;
3795;SDS011;1913;50.660;7.834;2023-12-04T09:28:12;14.60;;;8.03;;
3795;SDS011;1913;50.660;7.834;2023-12-04T09:30:37;12.20;;;6.43;;
3795;SDS011;1913;50.660;7.834;2023-12-04T09:33:02;11.90;;;6.97;;
3795;SDS011;1913;50.660;7.834;2023-12-04T09:35:27;12.20;;;6.57;;
3795;SDS011;1913;50.660;7.834;2023-12-04T09:37:53;9.63;;;6.00;;
3795;SDS011;1913;50.660;7.834;2023-12-04T09:40:19;15.27;;;6.53;;
3795;SDS011;1913;50.660;7.834;2023-12-04T09:42:44;10.77;;;6.57;;
3795;SDS011;1913;50.660;7.834;2023-12-04T09:45:09;9.73;;;5.73;;
3795;SDS011;1913;50.660;7.834;2023-12-04T09:47:34;13.40;;;6.43;;
3795;SDS011;1913;50.660;7.834;2023-12-04T09:50:00;10.10;;;5.90;;
3795;SDS011;1913;50.660;7.834;2023-12-04T09:52:27;10.30;;;6.13;;
3795;SDS011;1913;50.660;7.834;2023-12-04T09:54:52;13.77;;;6.60;;
3795;SDS011;1913;50.660;7.834;2023-12-04T09:57:17;11.00;;;6.47;;
3795;SDS011;1913;50.660;7.834;2023-12-04T09:59:43;8.43;;;5.67;;
3795;SDS011;1913;50.660;7.834;2023-12-04T10:02:09;10.23;;;6.20;;
3795;SDS011;1913;50.660;7.834;2023-12-04T10:04:34;13.53;;;7.07;;
3795;SDS011;1913;50.660;7.834;2023-12-04T10:07:00;11.37;;;6.77;;
3795;SDS011;1913;50.660;7.834;2023-12-04T10:09:25;13.23;;;6.80;;
3795;SDS011;1913;50.660;7.834;2023-12-04T10:11:50;13.60;;;7.10;;
3795;SDS011;1913;50.660;7.834;2023-12-04T10:14:17;12.30;;;6.50;;
3795;SDS011;1913;50.660;7.834;2023-12-04T10:16:43;11.40;;;6.77;;
3795;SDS011;1913;50.660;7.834;2023-12-04T10:21:40;12.40;;;7.47;;
3795;SDS011;1913;50.660;7.834;2023-12-04T10:24:05;11.83;;;6.90;;
3795;SDS011;1913;50.660;7.834;2023-12-04T10:26:31;11.87;;;6.53;;
3795;SDS011;1913;50.660;7.834;2023-12-04T10:29:00;13.07;;;7.00;;
3795;SDS011;1913;50.660;7.834;2023-12-04T10:31:25;12.60;;;7.33;;
3795;SDS011;1913;50.660;7.834;2023-12-04T10:33:51;13.80;;;7.50;;
3795;SDS011;1913;50.660;7.834;2023-12-04T10:36:16;11.87;;;7.13;;
3795;SDS011;1913;50.660;7.834;2023-12-04T10:38:42;15.17;;;8.27;;
3795;SDS011;1913;50.660;7.834;2023-12-04T10:41:13;13.83;;;7.00;;
3795;SDS011;1913;50.660;7.834;2023-12-04T10:43:46;15.30;;;7.43;;
3795;SDS011;1913;50.660;7.834;2023-12-04T10:46:11;12.80;;;7.30;;
3795;SDS011;1913;50.660;7.834;2023-12-04T10:48:37;13.87;;;7.93;;
3795;SDS011;1913;50.660;7.834;2023-12-04T10:51:03;14.30;;;7.50;;
3795;SDS011;1913;50.660;7.834;2023-12-04T10:53:30;11.20;;;7.43;;
3795;SDS011;1913;50.660;7.834;2023-12-04T10:55:55;14.73;;;7.67;;
3795;SDS011;1913;50.660;7.834;2023-12-04T10:58:21;13.90;;;7.80;;
3795;SDS011;1913;50.660;7.834;2023-12-04T11:00:51;14.30;;;7.67;;
3795;SDS011;1913;50.660;7.834;2023-12-04T11:05:44;11.80;;;7.70;;
3795;SDS011;1913;50.660;7.834;2023-12-04T11:08:11;14.73;;;8.10;;
3795;SDS011;1913;50.660;7.834;2023-12-04T11:10:40;14.83;;;8.27;;
3795;SDS011;1913;50.660;7.834;2023-12-04T11:13:08;14.30;;;7.87;;
3795;SDS011;1913;50.660;7.834;2023-12-04T11:15:35;16.30;;;8.43;;
3795;SDS011;1913;50.660;7.834;2023-12-04T11:18:03;15.30;;;8.50;;
3795;SDS011;1913;50.660;7.834;2023-12-04T11:20:30;15.33;;;8.80;;
3795;SDS011;1913;50.660;7.834;2023-12-04T11:22:56;20.33;;;8.70;;
3795;SDS011;1913;50.660;7.834;2023-12-04T11:25:21;13.90;;;7.90;;
3795;SDS011;1913;50.660;7.834;2023-12-04T11:27:49;15.03;;;7.93;;
3795;SDS011;1913;50.660;7.834;2023-12-04T11:30:15;16.60;;;9.50;;
3795;SDS011;1913;50.660;7.834;2023-12-04T11:32:48;15.60;;;8.53;;
3795;SDS011;1913;50.660;7.834;2023-12-04T11:35:16;11.60;;;7.77;;
3795;SDS011;1913;50.660;7.834;2023-12-04T11:37:42;14.77;;;8.73;;
3795;SDS011;1913;50.660;7.834;2023-12-04T11:40:10;17.17;;;9.97;;
3795;SDS011;1913;50.660;7.834;2023-12-04T11:42:35;17.27;;;9.17;;
3795;SDS011;1913;50.660;7.834;2023-12-04T11:45:01;16.03;;;8.73;;
3795;SDS011;1913;50.660;7.834;2023-12-04T11:47:28;17.40;;;9.00;;
3795;SDS011;1913;50.660;7.834;2023-12-04T11:49:53;19.73;;;9.20;;
3795;SDS011;1913;50.660;7.834;2023-12-04T11:52:19;17.17;;;8.67;;
3795;SDS011;1913;50.660;7.834;2023-12-04T11:57:25;16.00;;;9.70;;
3795;SDS011;1913;50.660;7.834;2023-12-04T11:59:51;18.10;;;9.53;;
3795;SDS011;1913;50.660;7.834;2023-12-04T12:02:16;20.80;;;9.37;;
3795;SDS011;1913;50.660;7.834;2023-12-04T12:04:42;17.10;;;9.30;;
3795;SDS011;1913;50.660;7.834;2023-12-04T12:07:07;17.27;;;9.73;;
3795;SDS011;1913;50.660;7.834;2023-12-04T12:09:33;18.67;;;9.40;;
3795;SDS011;1913;50.660;7.834;2023-12-04T12:12:01;17.20;;;9.30;;
3795;SDS011;1913;50.660;7.834;2023-12-04T12:14:28;16.80;;;9.17;;
3795;SDS011;1913;50.660;7.834;2023-12-04T12:16:54;14.20;;;8.97;;
3795;SDS011;1913;50.660;7.834;2023-12-04T12:19:20;17.90;;;9.93;;
3795;SDS011;1913;50.660;7.834;2023-12-04T12:21:46;17.03;;;8.90;;
3795;SDS011;1913;50.660;7.834;2023-12-04T12:24:14;15.20;;;8.47;;
3795;SDS011;1913;50.660;7.834;2023-12-04T12:26:39;16.17;;;9.37;;
3795;SDS011;1913;50.660;7.834;2023-12-04T12:29:04;20.83;;;9.37;;
3795;SDS011;1913;50.660;7.834;2023-12-04T12:31:29;18.07;;;9.30;;
3795;SDS011;1913;50.660;7.834;2023-12-04T12:33:55;22.27;;;9.40;;
3795;SDS011;1913;50.660;7.834;2023-12-04T12:36:20;17.53;;;9.60;;
3795;SDS011;1913;50.660;7.834;2023-12-04T12:38:45;16.70;;;9.20;;
3795;SDS011;1913;50.660;7.834;2023-12-04T12:41:17;15.50;;;8.83;;
3795;SDS011;1913;50.660;7.834;2023-12-04T12:43:43;18.50;;;9.90;;
3795;SDS011;1913;50.660;7.834;2023-12-04T12:46:08;20.90;;;10.23;;
3795;SDS011;1913;50.660;7.834;2023-12-04T12:48:34;16.90;;;8.70;;
3795;SDS011;1913;50.660;7.834;2023-12-04T12:50:59;16.13;;;7.60;;
3795;SDS011;1913;50.660;7.834;2023-12-04T12:53:27;16.33;;;9.50;;
3795;SDS011;1913;50.660;7.834;2023-12-04T12:55:52;16.60;;;9.53;;
3795;SDS011;1913;50.660;7.834;2023-12-04T12:58:17;15.20;;;8.70;;
3795;SDS011;1913;50.660;7.834;2023-12-04T13:00:45;16.13;;;9.37;;
3795;SDS011;1913;50.660;7.834;2023-12-04T13:03:14;13.53;;;8.33;;
3795;SDS011;1913;50.660;7.834;2023-12-04T13:05:40;16.63;;;8.40;;
3795;SDS011;1913;50.660;7.834;2023-12-04T13:08:05;17.50;;;8.60;;
3795;SDS011;1913;50.660;7.834;2023-12-04T13:10:30;16.43;;;8.63;;
3795;SDS011;1913;50.660;7.834;2023-12-04T13:12:55;16.00;;;8.70;;
3795;SDS011;1913;50.660;7.834;2023-12-04T13:15:21;21.80;;;9.03;;
3795;SDS011;1913;50.660;7.834;2023-12-04T13:17:46;16.03;;;8.37;;
3795;SDS011;1913;50.660;7.834;2023-12-04T13:20:12;15.83;;;8.57;;
3795;SDS011;1913;50.660;7.834;2023-12-04T13:22:38;15.77;;;9.40;;
3795;SDS011;1913;50.660;7.834;2023-12-04T13:25:04;17.53;;;9.13;;
3795;SDS011;1913;50.660;7.834;2023-12-04T13:27:32;18.10;;;9.83;;
3795;SDS011;1913;50.660;7.834;2023-12-04T13:29:58;15.97;;;8.27;;
3795;SDS011;1913;50.660;7.834;2023-12-04T13:32:23;15.00;;;9.10;;
3795;SDS011;1913;50.660;7.834;2023-12-04T13:34:48;17.60;;;9.80;;
3795;SDS011;1913;50.660;7.834;2023-12-04T13:37:13;15.27;;;8.63;;
3795;SDS011;1913;50.660;7.834;2023-12-04T13:39:38;14.20;;;8.17;;
3795;SDS011;1913;50.660;7.834;2023-12-04T13:42:12;17.37;;;10.20;;
3795;SDS011;1913;50.660;7.834;2023-12-04T13:44:56;15.30;;;8.50;;
3795;SDS011;1913;50.660;7.834;2023-12-04T13:47:21;16.90;;;9.20;;
3795;SDS011;1913;50.660;7.834;2023-12-04T13:49:46;17.00;;;8.50;;
3795;SDS011;1913;50.660;7.834;2023-12-04T13:52:11;15.00;;;9.20;;
3795;SDS011;1913;50.660;7.834;2023-12-04T13:54:37;17.10;;;9.40;;
3795;SDS011;1913;50.660;7.834;2023-12-04T13:57:14;15.27;;;8.03;;
3795;SDS011;1913;50.660;7.834;2023-12-04T13:59:58;16.60;;;9.17;;
3795;SDS011;1913;50.660;7.834;2023-12-04T14:02:23;17.40;;;9.80;;
3795;SDS011;1913;50.660;7.834;2023-12-04T14:04:49;13.90;;;8.03;;
3795;SDS011;1913;50.660;7.834;2023-12-04T14:07:14;16.80;;;9.33;;
3795;SDS011;1913;50.660;7.834;2023-12-04T14:09:40;15.63;;;8.70;;
3795;SDS011;1913;50.660;7.834;2023-12-04T14:12:05;13.17;;;8.60;;
3795;SDS011;1913;50.660;7.834;2023-12-04T14:14:31;14.23;;;8.57;;
3795;SDS011;1913;50.660;7.834;2023-12-04T14:16:58;15.43;;;8.63;;
3795;SDS011;1913;50.660;7.834;2023-12-04T14:19:23;15.77;;;8.80;;
3795;SDS011;1913;50.660;7.834;2023-12-04T14:21:48;15.90;;;9.80;;
3795;SDS011;1913;50.660;7.834;2023-12-04T14:24:13;16.93;;;9.00;;
3795;SDS011;1913;50.660;7.834;2023-12-04T14:26:39;14.63;;;8.50;;
3795;SDS011;1913;50.660;7.834;2023-12-04T14:29:04;15.30;;;8.60;;
3795;SDS011;1913;50.660;7.834;2023-12-04T14:31:29;17.37;;;9.63;;
3795;SDS011;1913;50.660;7.834;2023-12-04T14:33:55;16.53;;;8.90;;
3795;SDS011;1913;50.660;7.834;2023-12-04T14:36:20;16.43;;;9.43;;
3795;SDS011;1913;50.660;7.834;2023-12-04T14:38:45;15.90;;;8.63;;
3795;SDS011;1913;50.660;7.834;2023-12-04T14:41:10;20.83;;;10.10;;
3795;SDS011;1913;50.660;7.834;2023-12-04T14:43:36;14.93;;;8.60;;
3795;SDS011;1913;50.660;7.834;2023-12-04T14:46:02;15.97;;;9.20;;
3795;SDS011;1913;50.660;7.834;2023-12-04T14:48:27;18.10;;;9.07;;
3795;SDS011;1913;50.660;7.834;2023-12-04T14:50:53;17.63;;;9.10;;
3795;SDS011;1913;50.660;7.834;2023-12-04T14:53:18;18.07;;;9.00;;